Time;durP1;ratioP1;P1;durP2;ratioP2;P2;SDS_P1;SDS_P2;PMS_P1;PMS_P2;Temp;Humidity;BMP_temperature;BMP_pressure;BME280_temperature;BME280_humidity;BME280_pressure;Samples;Min_cycle;Max_cycle;Signal;HPM_P1;HPM_P2
2022/03/08 00:00:31;;;;;;;24.35;13.60;;;;;;;-2.17;52.99;96850.69;5093436;28;20044;-78
2022/03/08 00:02:57;;;;;;;25.77;13.77;;;;;;;-2.15;53.06;96848.59;5093967;28;20135;-78
2022/03/08 00:05:25;;;;;;;26.75;13.85;;;;;;;-2.15;52.97;96840.59;5093091;28;20048;-77
2022/03/08 00:07:52;;;;;;;29.83;14.77;;;;;;;-2.13;52.85;96842.00;5091777;28;20048;-77
2022/03/08 00:10:20;;;;;;;29.42;14.18;;;;;;;-2.14;53.08;96840.38;5091008;28;20043;-77
2022/03/08 00:12:48;;;;;;;26.05;14.38;;;;;;;-2.13;52.96;96846.53;5089353;28;20044;-77
2022/03/08 00:15:18;;;;;;;25.50;13.35;;;;;;;-2.11;52.85;96839.09;5093660;28;20556;-77
2022/03/08 00:17:45;;;;;;;25.75;14.40;;;;;;;-2.09;52.99;96839.69;5095180;28;20082;-78
2022/03/08 00:20:13;;;;;;;26.52;13.57;;;;;;;-2.10;52.88;96832.72;5095549;28;20052;-77
2022/03/08 00:22:40;;;;;;;27.95;14.25;;;;;;;-2.11;52.68;96836.44;5091455;28;20047;-77
2022/03/08 00:25:08;;;;;;;25.83;14.05;;;;;;;-2.11;52.72;96836.44;5091307;28;20563;-77
2022/03/08 00:27:35;;;;;;;25.92;13.80;;;;;;;-2.13;53.00;96836.66;5091035;28;20131;-77
2022/03/08 00:30:04;;;;;;;26.85;14.43;;;;;;;-2.13;53.11;96835.84;5090921;28;20048;-78
2022/03/08 00:32:31;;;;;;;27.88;13.55;;;;;;;-2.14;53.12;96840.38;5091467;28;20040;-78
2022/03/08 00:34:57;;;;;;;25.95;13.80;;;;;;;-2.15;53.09;96840.59;5090617;28;20067;-78
2022/03/08 00:37:24;;;;;;;28.70;14.93;;;;;;;-2.14;53.23;96839.53;5091088;28;20047;-76
2022/03/08 00:39:50;;;;;;;24.42;14.00;;;;;;;-2.16;53.44;96842.44;5090679;28;20052;-77
2022/03/08 00:42:17;;;;;;;32.85;14.70;;;;;;;-2.19;53.22;96836.75;5090264;28;20040;-78
2022/03/08 00:44:44;;;;;;;26.48;14.13;;;;;;;-2.23;53.35;96835.56;5089997;28;20072;-78
2022/03/08 00:47:13;;;;;;;27.88;15.38;;;;;;;-2.28;53.05;96832.78;5090207;28;20041;-77
2022/03/08 00:49:41;;;;;;;28.75;14.77;;;;;;;-2.26;53.91;96833.34;5090192;28;20372;-77
2022/03/08 00:52:08;;;;;;;26.70;14.40;;;;;;;-2.29;53.30;96831.16;5089536;28;20048;-77
2022/03/08 00:54:36;;;;;;;29.45;14.93;;;;;;;-2.29;53.55;96820.47;5091024;28;20052;-77
2022/03/08 00:57:02;;;;;;;27.92;14.65;;;;;;;-2.30;53.63;96819.63;5089453;28;20130;-78
2022/03/08 00:59:29;;;;;;;28.40;15.40;;;;;;;-2.32;53.51;96816.38;5090695;28;20040;-77
2022/03/08 01:01:55;;;;;;;28.25;14.68;;;;;;;-2.35;53.46;96811.50;5089392;28;20122;-77
2022/03/08 01:04:23;;;;;;;30.38;15.40;;;;;;;-2.40;53.39;96814.84;5090190;28;20059;-77
2022/03/08 01:06:50;;;;;;;32.20;15.20;;;;;;;-2.39;53.41;96816.47;5089914;28;20059;-77
2022/03/08 01:09:16;;;;;;;28.13;14.68;;;;;;;-2.37;53.60;96814.41;5089919;28;20044;-77
2022/03/08 01:11:43;;;;;;;27.05;14.48;;;;;;;-2.39;53.56;96811.16;5089673;28;20048;-79
2022/03/08 01:14:10;;;;;;;24.85;14.05;;;;;;;-2.39;53.48;96810.34;5089433;28;20446;-78
2022/03/08 01:16:37;;;;;;;26.27;15.07;;;;;;;-2.39;53.37;96813.00;5091570;28;20411;-77
2022/03/08 01:19:05;;;;;;;27.55;14.02;;;;;;;-2.43;53.67;96809.97;5090430;28;20044;-77
2022/03/08 01:21:35;;;;;;;25.10;14.00;;;;;;;-2.45;53.53;96804.06;5090739;28;20040;-77
2022/03/08 01:24:02;;;;;;;29.13;15.85;;;;;;;-2.48;53.63;96795.69;5088991;28;20051;-79
2022/03/08 01:26:29;;;;;;;28.30;14.85;;;;;;;-2.51;53.67;96791.59;5090719;28;20070;-78
2022/03/08 01:28:55;;;;;;;28.65;15.13;;;;;;;-2.51;53.83;96796.13;5089622;28;20047;-78
2022/03/08 01:31:22;;;;;;;29.65;15.15;;;;;;;-2.53;53.71;96792.88;5089916;28;20452;-77
2022/03/08 01:33:49;;;;;;;30.67;14.95;;;;;;;-2.54;53.96;96792.06;5089842;28;20071;-77
2022/03/08 01:36:16;;;;;;;25.40;14.35;;;;;;;-2.51;53.88;96796.13;5089364;28;20048;-77
2022/03/08 01:38:44;;;;;;;27.95;14.75;;;;;;;-2.52;53.64;96797.97;5089197;28;20054;-77
2022/03/08 01:41:10;;;;;;;29.83;15.75;;;;;;;-2.51;53.62;96791.59;5088810;28;20048;-78
2022/03/08 01:43:37;;;;;;;27.95;15.13;;;;;;;-2.52;53.63;96789.16;5089710;28;20047;-78
2022/03/08 01:46:03;;;;;;;28.00;14.98;;;;;;;-2.51;53.66;96790.78;5088542;28;20036;-78
2022/03/08 01:48:30;;;;;;;26.50;14.63;;;;;;;-2.52;53.59;96783.81;5089999;28;20044;-78
2022/03/08 01:50:57;;;;;;;33.22;15.27;;;;;;;-2.51;53.58;96790.78;5088394;28;20722;-77
2022/03/08 01:53:24;;;;;;;29.00;15.40;;;;;;;-2.50;53.51;96790.56;5089133;28;20132;-76
2022/03/08 01:55:52;;;;;;;30.15;14.68;;;;;;;-2.52;53.61;96783.81;5088978;28;20044;-77
2022/03/08 01:58:19;;;;;;;28.10;14.57;;;;;;;-2.53;53.60;96785.69;5088783;28;20703;-78
2022/03/08 02:00:45;;;;;;;31.90;15.52;;;;;;;-2.51;53.72;96778.25;5089175;28;20043;-78
2022/03/08 02:03:12;;;;;;;31.15;15.38;;;;;;;-2.51;53.77;96777.44;5088528;28;20055;-78
2022/03/08 02:05:38;;;;;;;28.15;14.68;;;;;;;-2.52;53.84;96765.97;5089532;28;20050;-78
2022/03/08 02:08:05;;;;;;;32.00;15.57;;;;;;;-2.53;53.84;96760.88;5088197;28;20052;-78
2022/03/08 02:10:32;;;;;;;29.95;15.07;;;;;;;-2.52;53.68;96763.31;5089900;28;20044;-77
2022/03/08 02:13:00;;;;;;;29.77;15.45;;;;;;;-2.60;54.03;96752.97;5088751;28;20040;-77
2022/03/08 02:15:29;;;;;;;27.48;15.07;;;;;;;-2.59;53.95;96753.78;5088716;28;20036;-77
2022/03/08 02:17:56;;;;;;;28.35;15.25;;;;;;;-2.59;54.14;96746.59;5088724;28;20051;-77
2022/03/08 02:20:22;;;;;;;27.30;14.68;;;;;;;-2.57;54.18;96755.16;5088581;28;20062;-78
2022/03/08 02:22:52;;;;;;;31.55;17.00;;;;;;;-2.57;54.02;96749.84;5088454;28;20051;-78
2022/03/08 02:25:19;;;;;;;33.72;17.20;;;;;;;-2.57;53.97;96749.03;5088345;28;20048;-78
2022/03/08 02:27:48;;;;;;;29.92;16.48;;;;;;;-2.56;53.88;96751.44;5088929;28;20051;-78
2022/03/08 02:30:17;;;;;;;29.23;15.90;;;;;;;-2.59;54.31;96745.78;5087768;28;20044;-77
2022/03/08 02:32:44;;;;;;;37.83;18.77;;;;;;;-2.58;54.10;96745.53;5089290;28;20490;-77
2022/03/08 02:35:13;;;;;;;32.53;16.70;;;;;;;-2.57;54.23;96744.50;5088014;28;20055;-78
2022/03/08 02:37:41;;;;;;;30.27;16.85;;;;;;;-2.57;53.88;96744.50;5089286;28;20058;-77
2022/03/08 02:40:11;;;;;;;31.33;16.92;;;;;;;-2.58;54.14;96740.22;5087886;28;20040;-77
2022/03/08 02:42:38;;;;;;;28.27;16.33;;;;;;;-2.62;54.27;96741.69;5088681;28;20044;-77
2022/03/08 02:45:06;;;;;;;30.88;16.25;;;;;;;-2.65;54.51;96740.31;5087930;28;20040;-77
2022/03/08 02:47:32;;;;;;;30.88;16.10;;;;;;;-2.67;54.72;96733.56;5088613;28;20044;-77
2022/03/08 02:49:59;;;;;;;32.00;16.15;;;;;;;-2.68;54.85;96738.06;5090031;28;20225;-78
2022/03/08 02:52:26;;;;;;;30.98;15.82;;;;;;;-2.71;54.58;96733.22;5091671;28;20125;-77
2022/03/08 02:54:53;;;;;;;33.85;15.25;;;;;;;-2.69;54.74;96736.44;5093636;28;20048;-78
2022/03/08 02:57:20;;;;;;;31.92;16.08;;;;;;;-2.73;54.80;96729.13;5091658;28;20441;-77
2022/03/08 02:59:47;;;;;;;29.60;16.02;;;;;;;-2.76;54.80;96732.25;5093107;28;20051;-78
2022/03/08 03:02:14;;;;;;;29.75;15.52;;;;;;;-2.75;54.82;96728.56;5091252;28;20056;-78
2022/03/08 03:04:40;;;;;;;31.00;16.63;;;;;;;-2.74;54.61;96728.31;5092774;28;20071;-77
2022/03/08 03:07:07;;;;;;;30.60;15.48;;;;;;;-2.73;54.67;96724.59;5091740;28;20052;-79
2022/03/08 03:09:33;;;;;;;28.73;15.18;;;;;;;-2.70;54.66;96728.69;5092588;28;20458;-78
2022/03/08 03:12:00;;;;;;;26.85;14.23;;;;;;;-2.70;54.48;96723.34;5092455;28;20048;-77
2022/03/08 03:14:28;;;;;;;29.25;15.23;;;;;;;-2.72;54.44;96725.41;5091938;28;20040;-77
2022/03/08 03:16:54;;;;;;;28.95;15.73;;;;;;;-2.69;54.28;96723.13;5093976;28;20048;-76
2022/03/08 03:19:21;;;;;;;28.23;15.40;;;;;;;-2.72;54.38;96720.09;5091764;28;20048;-77
2022/03/08 03:21:47;;;;;;;30.10;15.85;;;;;;;-2.69;54.03;96720.47;5093288;28;20044;-78
2022/03/08 03:24:14;;;;;;;25.88;14.40;;;;;;;-2.68;54.27;96721.28;5091285;28;20046;-75
2022/03/08 03:26:40;;;;;;;30.55;15.50;;;;;;;-2.70;54.05;96708.19;5092338;28;20531;-77
2022/03/08 03:29:07;;;;;;;27.15;15.23;;;;;;;-2.68;54.07;96721.28;5091239;28;20056;-78
2022/03/08 03:31:35;;;;;;;27.77;15.07;;;;;;;-2.70;54.56;96712.69;5092318;28;20048;-78
2022/03/08 03:34:01;;;;;;;30.85;14.63;;;;;;;-2.72;54.42;96726.22;5092160;28;20044;-76
2022/03/08 03:36:29;;;;;;;29.02;14.73;;;;;;;-2.76;54.27;96724.25;5089577;28;20036;-77
2022/03/08 03:38:55;;;;;;;27.55;14.95;;;;;;;-2.78;54.58;96726.31;5092277;28;20118;-77
2022/03/08 03:41:22;;;;;;;27.90;14.57;;;;;;;-2.77;54.66;96722.59;5090367;28;20059;-78
2022/03/08 03:43:48;;;;;;;32.22;15.75;;;;;;;-2.78;54.74;96718.31;5090219;28;20785;-78
2022/03/08 03:46:16;;;;;;;29.15;15.15;;;;;;;-2.79;54.59;96717.50;5090639;28;20515;-77
2022/03/08 03:48:44;;;;;;;29.08;15.60;;;;;;;-2.79;54.68;96714.84;5091963;28;20123;-78
2022/03/08 03:51:11;;;;;;;29.23;14.75;;;;;;;-2.77;54.73;96722.59;5090591;28;20055;-78
2022/03/08 03:53:38;;;;;;;30.90;15.23;;;;;;;-2.78;54.83;96715.66;5091589;28;20105;-75
2022/03/08 03:56:05;;;;;;;31.10;15.80;;;;;;;-2.83;54.83;96713.66;5090852;28;20044;-76
2022/03/08 03:58:31;;;;;;;30.67;15.48;;;;;;;-2.83;55.08;96720.84;5091050;28;20054;-76
2022/03/08 04:00:58;;;;;;;30.08;15.02;;;;;;;-2.89;54.99;96719.91;5091086;28;20050;-78
2022/03/08 04:03:26;;;;;;;38.67;16.35;;;;;;;-2.89;54.97;96726.03;5090206;28;20119;-78
2022/03/08 04:05:54;;;;;;;30.13;15.05;;;;;;;-2.87;55.13;96725.84;5091749;28;20052;-75
2022/03/08 04:08:21;;;;;;;35.50;16.75;;;;;;;-2.87;55.11;96717.84;5090167;28;20036;-75
2022/03/08 04:10:48;;;;;;;26.95;14.35;;;;;;;-2.84;55.26;96721.88;5091652;28;20456;-75
2022/03/08 04:13:15;;;;;;;32.05;16.98;;;;;;;-2.85;55.10;96720.28;5089978;28;20055;-75
2022/03/08 04:15:42;;;;;;;28.10;14.88;;;;;;;-2.85;55.59;96725.59;5091130;28;20040;-77
2022/03/08 04:18:08;;;;;;;29.92;15.13;;;;;;;-2.84;55.50;96728.03;5090158;28;20696;-75
2022/03/08 04:20:35;;;;;;;29.67;15.25;;;;;;;-2.86;55.47;96729.31;5090900;28;20255;-77
2022/03/08 04:23:04;;;;;;;29.35;14.45;;;;;;;-2.84;55.41;96735.22;5091195;28;20548;-79
2022/03/08 04:25:31;;;;;;;27.27;14.13;;;;;;;-2.86;55.07;96732.78;5090575;28;20046;-77
2022/03/08 04:27:58;;;;;;;32.42;14.90;;;;;;;-2.83;54.90;96731.50;5091450;28;20048;-77
2022/03/08 04:30:25;;;;;;;32.42;15.05;;;;;;;-2.83;54.67;96728.84;5089706;28;20539;-77
2022/03/08 04:32:51;;;;;;;24.73;13.40;;;;;;;-2.82;54.58;96725.13;5091446;28;20048;-78
2022/03/08 04:35:18;;;;;;;26.63;15.10;;;;;;;-2.86;54.58;96735.44;5089743;28;20066;-77
2022/03/08 04:37:44;;;;;;;30.70;14.27;;;;;;;-2.85;54.63;96733.59;5091147;28;20044;-77
2022/03/08 04:40:13;;;;;;;29.40;15.02;;;;;;;-2.88;54.89;96730.31;5089977;28;20093;-78
2022/03/08 04:42:40;;;;;;;37.88;15.75;;;;;;;-2.88;54.72;96727.66;5090759;28;20061;-77
2022/03/08 04:45:08;;;;;;;32.50;13.63;;;;;;;-2.87;54.86;96728.50;5090036;28;20048;-78
2022/03/08 04:47:35;;;;;;;29.98;15.27;;;;;;;-2.88;54.57;96722.31;5091191;28;20048;-77
2022/03/08 04:50:02;;;;;;;28.30;13.13;;;;;;;-2.91;54.78;96727.31;5090698;28;20422;-80
2022/03/08 04:52:28;;;;;;;39.38;14.70;;;;;;;-2.91;55.10;96727.31;5090142;28;20044;-77
2022/03/08 04:54:55;;;;;;;34.88;14.65;;;;;;;-2.90;54.79;96719.09;5091091;28;20059;-78
2022/03/08 04:57:23;;;;;;;29.30;14.35;;;;;;;-2.89;55.15;96728.69;5089389;28;20051;-77
2022/03/08 04:59:49;;;;;;;33.53;14.18;;;;;;;-2.88;54.71;96718.84;5091259;28;20487;-77
2022/03/08 05:02:16;;;;;;;24.98;13.13;;;;;;;-2.88;54.61;96722.31;5089382;28;20666;-77
2022/03/08 05:04:43;;;;;;;28.50;14.27;;;;;;;-2.84;54.53;96721.88;5090939;28;20047;-77
2022/03/08 05:07:09;;;;;;;28.85;13.68;;;;;;;-2.81;54.85;96716.13;5089897;28;20066;-78
2022/03/08 05:09:36;;;;;;;28.20;14.45;;;;;;;-2.80;55.15;96720.41;5090769;28;20052;-77
2022/03/08 05:12:03;;;;;;;27.38;14.93;;;;;;;-2.79;55.02;96719.38;5093155;28;20050;-77
2022/03/08 05:14:31;;;;;;;24.80;13.48;;;;;;;-2.84;55.02;96722.69;5094036;28;20048;-77
2022/03/08 05:16:58;;;;;;;26.60;13.63;;;;;;;-2.84;55.32;96727.22;5097345;28;20570;-78
2022/03/08 05:19:24;;;;;;;24.30;13.35;;;;;;;-2.86;55.54;96723.97;5094378;28;20131;-77
2022/03/08 05:21:51;;;;;;;32.70;14.63;;;;;;;-2.89;56.03;96720.69;5096833;28;20044;-78
2022/03/08 05:24:17;;;;;;;28.35;14.68;;;;;;;-2.88;55.73;96721.50;5096047;28;20036;-76
2022/03/08 05:26:44;;;;;;;25.25;13.55;;;;;;;-2.86;56.07;96731.97;5091627;28;20052;-77
2022/03/08 05:29:10;;;;;;;26.20;13.82;;;;;;;-2.87;55.65;96720.50;5091154;28;20051;-78
2022/03/08 05:31:38;;;;;;;34.42;15.95;;;;;;;-2.87;55.83;96717.84;5092740;28;20048;-77
2022/03/08 05:34:05;;;;;;;31.77;14.05;;;;;;;-2.85;55.60;96721.06;5091609;28;20055;-78
2022/03/08 05:36:31;;;;;;;28.35;13.80;;;;;;;-2.82;55.58;96719.81;5092844;28;20044;-78
2022/03/08 05:38:58;;;;;;;26.65;13.90;;;;;;;-2.79;55.52;96714.84;5092003;28;20044;-78
2022/03/08 05:41:24;;;;;;;26.30;14.00;;;;;;;-2.76;55.32;96714.41;5091662;28;20044;-78
2022/03/08 05:43:51;;;;;;;27.00;13.60;;;;;;;-2.75;55.36;96716.03;5090225;28;20052;-77
2022/03/08 05:46:17;;;;;;;27.10;14.27;;;;;;;-2.75;55.42;96720.56;5089058;28;20047;-77
2022/03/08 05:48:45;;;;;;;27.92;13.82;;;;;;;-2.75;55.20;96723.22;5090448;28;20052;-77
2022/03/08 05:51:12;;;;;;;28.55;14.00;;;;;;;-2.74;55.20;96724.84;5088762;28;20048;-77
2022/03/08 05:53:38;;;;;;;28.48;14.82;;;;;;;-2.72;55.50;96722.75;5085228;28;20542;-77
2022/03/08 05:56:05;;;;;;;25.13;13.70;;;;;;;-2.68;55.28;96722.09;5073976;28;20513;-78
2022/03/08 05:58:32;;;;;;;27.52;14.27;;;;;;;-2.67;55.34;96733.56;5066604;28;20048;-78
2022/03/08 06:00:59;;;;;;;28.05;14.73;;;;;;;-2.66;55.32;96729.88;5065616;28;20143;-79
2022/03/08 06:03:26;;;;;;;28.02;15.02;;;;;;;-2.66;55.56;96727.22;5068948;28;20051;-78
2022/03/08 06:05:57;;;;;;;30.25;15.27;;;;;;;-2.64;55.39;96727.78;5066605;28;20097;-78
2022/03/08 06:08:24;;;;;;;29.65;14.50;;;;;;;-2.63;55.93;96732.06;5064978;28;20048;-77
2022/03/08 06:10:50;;;;;;;28.20;15.75;;;;;;;-2.58;55.27;96732.22;5066780;28;20044;-78
2022/03/08 06:13:17;;;;;;;29.95;15.60;;;;;;;-2.57;54.69;96733.84;5065303;28;20049;-78
2022/03/08 06:15:43;;;;;;;23.23;13.77;;;;;;;-2.54;55.32;96733.41;5083464;28;20051;-77
2022/03/08 06:18:10;;;;;;;29.00;13.43;;;;;;;-2.48;54.81;96732.50;5085375;28;20052;-77
2022/03/08 06:20:36;;;;;;;26.65;13.85;;;;;;;-2.42;54.42;96736.09;5086189;28;20597;-78
2022/03/08 06:23:04;;;;;;;31.60;14.30;;;;;;;-2.42;54.51;96731.56;5085705;28;20056;-78
2022/03/08 06:25:31;;;;;;;28.48;13.02;;;;;;;-2.39;54.22;96731.13;5089665;28;20059;-78
2022/03/08 06:27:57;;;;;;;69.50;14.50;;;;;;;-2.36;54.24;96736.00;5091075;28;20494;-77
2022/03/08 06:30:24;;;;;;;46.78;15.10;;;;;;;-2.33;54.31;96739.28;5089422;28;20051;-78
2022/03/08 06:32:50;;;;;;;84.88;15.50;;;;;;;-2.31;54.59;96737.19;5090586;28;20044;-78
2022/03/08 06:35:18;;;;;;;113.53;15.55;;;;;;;-2.27;54.77;96730.34;5089048;28;20051;-77
2022/03/08 06:37:44;;;;;;;122.60;15.65;;;;;;;-2.25;54.50;96738.94;5090587;28;20139;-78
2022/03/08 06:40:13;;;;;;;25.77;13.35;;;;;;;-2.23;53.94;96744.88;5089636;28;20464;-78
2022/03/08 06:42:40;;;;;;;41.95;15.98;;;;;;;-2.20;53.98;96733.72;5089974;28;20422;-78
2022/03/08 06:45:08;;;;;;;150.65;60.80;;;;;;;-2.19;53.80;96735.38;5089029;28;20056;-75
2022/03/08 06:47:35;;;;;;;114.68;18.75;;;;;;;-2.12;54.18;96736.09;5089778;28;20052;-77
2022/03/08 06:50:01;;;;;;;142.52;35.40;;;;;;;-2.09;54.86;96730.28;5090920;28;20068;-78
2022/03/08 06:52:29;;;;;;;179.18;44.42;;;;;;;-2.04;54.71;96738.41;5090387;28;20159;-79
2022/03/08 06:54:55;;;;;;;44.70;15.95;;;;;;;-1.94;54.66;96733.34;5091371;28;20082;-78
2022/03/08 06:57:24;;;;;;;114.00;21.33;;;;;;;-1.87;54.25;96734.06;5088836;28;20056;-77
2022/03/08 06:59:50;;;;;;;139.55;38.83;;;;;;;-1.77;54.17;96722.00;5090272;28;20134;-77
2022/03/08 07:02:17;;;;;;;31.38;13.85;;;;;;;-1.69;53.78;96729.66;5088486;28;20082;-78
2022/03/08 07:04:43;;;;;;;31.70;14.80;;;;;;;-1.59;54.16;96724.56;5089726;28;20054;-78
2022/03/08 07:07:10;;;;;;;25.05;13.90;;;;;;;-1.51;53.48;96724.22;5089331;28;20048;-77
2022/03/08 07:09:37;;;;;;;40.72;15.77;;;;;;;-1.35;53.91;96730.72;5090396;28;20051;-77
2022/03/08 07:12:04;;;;;;;31.05;13.82;;;;;;;-1.22;53.15;96724.31;5092838;28;20055;-77
2022/03/08 07:14:32;;;;;;;41.22;14.68;;;;;;;-1.09;53.11;96716.88;5089379;28;20047;-77
2022/03/08 07:16:58;;;;;;;62.60;15.25;;;;;;;-0.93;52.76;96727.88;5090506;28;20048;-76
2022/03/08 07:19:25;;;;;;;90.47;15.65;;;;;;;-0.85;52.19;96730.19;5089159;28;20052;-78
2022/03/08 07:21:51;;;;;;;48.60;14.60;;;;;;;-0.73;52.48;96722.13;5090536;28;20418;-77
2022/03/08 07:24:18;;;;;;;50.67;15.23;;;;;;;-0.57;52.23;96721.41;5088096;28;20083;-77
2022/03/08 07:26:44;;;;;;;32.45;15.05;;;;;;;-0.40;51.77;96716.91;5089401;28;20697;-77
2022/03/08 07:29:11;;;;;;;26.27;13.55;;;;;;;-0.19;51.68;96725.31;5090415;28;20578;-77
2022/03/08 07:31:39;;;;;;;39.90;14.32;;;;;;;0.07;51.68;96722.00;5089603;28;20066;-78
2022/03/08 07:34:06;;;;;;;47.88;13.93;;;;;;;0.39;51.01;96732.16;5088903;28;20067;-78
2022/03/08 07:36:32;;;;;;;70.75;14.50;;;;;;;0.75;49.86;96728.97;5088718;28;20047;-77
2022/03/08 07:38:59;;;;;;;74.25;14.65;;;;;;;1.15;49.35;96738.66;5087802;28;20044;-79
2022/03/08 07:41:26;;;;;;;69.05;13.10;;;;;;;1.20;48.69;96741.41;5070467;28;20055;-78
2022/03/08 07:43:53;;;;;;;63.58;13.45;;;;;;;1.26;48.70;96736.91;5072824;28;20407;-79
2022/03/08 07:46:20;;;;;;;56.80;13.82;;;;;;;1.39;47.98;96733.03;5089700;28;20052;-79
2022/03/08 07:48:48;;;;;;;68.97;13.55;;;;;;;1.73;46.84;96734.50;5090421;28;20051;-79
2022/03/08 07:51:14;;;;;;;43.72;13.00;;;;;;;2.41;44.84;96734.06;5089324;28;20052;-79
2022/03/08 07:53:41;;;;;;;82.22;13.55;;;;;;;3.04;44.76;96727.78;5088334;28;20048;-78
2022/03/08 07:56:09;;;;;;;68.53;13.05;;;;;;;3.51;43.16;96728.81;5088880;28;20056;-78
2022/03/08 07:58:38;;;;;;;77.75;13.27;;;;;;;3.92;41.89;96718.97;5070985;28;20059;-79
2022/03/08 08:01:05;;;;;;;75.50;12.55;;;;;;;4.39;41.48;96736.81;5089275;28;20449;-79
2022/03/08 08:03:32;;;;;;;105.43;14.63;;;;;;;4.75;40.12;96737.63;5089115;28;20494;-78
2022/03/08 08:06:02;;;;;;;50.53;9.60;;;;;;;5.06;40.02;96724.88;5089636;28;20463;-79
2022/03/08 08:08:28;;;;;;;18.70;9.77;;;;;;;5.16;37.34;96734.84;5087732;28;20040;-79
2022/03/08 08:10:56;;;;;;;35.70;10.88;;;;;;;5.42;37.12;96732.88;5089574;28;20059;-79
2022/03/08 08:13:25;;;;;;;68.05;12.68;;;;;;;5.72;36.77;96731.94;5088042;28;20054;-76
2022/03/08 08:15:51;;;;;;;65.80;11.48;;;;;;;5.82;36.00;96739.19;5089417;28;20788;-78
2022/03/08 08:18:19;;;;;;;82.40;12.65;;;;;;;6.22;36.89;96740.91;5089466;28;20044;-78
2022/03/08 08:20:52;;;;;;;64.50;12.48;;;;;;;6.63;35.51;96743.28;5090276;28;20082;-77
2022/03/08 08:23:20;;;;;;;46.33;13.00;;;;;;;7.06;34.29;96739.66;5089152;28;20076;-77
2022/03/08 08:25:46;;;;;;;60.10;13.35;;;;;;;7.35;33.99;96730.69;5089840;28;20546;-78
2022/03/08 08:28:14;;;;;;;81.18;13.32;;;;;;;7.73;33.12;96737.03;5079853;28;20129;-78
2022/03/08 08:30:41;;;;;;;42.58;10.95;;;;;;;8.03;32.52;96735.81;5089613;28;20056;-77
2022/03/08 08:33:07;;;;;;;70.30;12.38;;;;;;;7.86;32.42;96730.09;5089613;28;20126;-77
2022/03/08 08:35:36;;;;;;;70.60;12.35;;;;;;;8.05;33.26;96739.06;5090073;28;20056;-77
2022/03/08 08:38:05;;;;;;;96.43;14.02;;;;;;;8.19;32.05;96732.91;5090198;28;20059;-79
2022/03/08 08:40:35;;;;;;;45.85;11.90;;;;;;;7.93;33.35;96733.25;5090434;28;20499;-76
2022/03/08 08:43:01;;;;;;;96.25;13.05;;;;;;;8.04;33.50;96734.75;5088939;28;20461;-78
2022/03/08 08:45:29;;;;;;;75.60;11.93;;;;;;;8.30;33.02;96729.75;5076456;28;20052;-78
2022/03/08 08:47:56;;;;;;;35.03;11.55;;;;;;;8.51;31.99;96735.72;5069905;28;20492;-77
2022/03/08 08:50:22;;;;;;;64.07;12.27;;;;;;;8.48;32.72;96732.78;5068993;28;20049;-78
2022/03/08 08:52:49;;;;;;;63.85;11.48;;;;;;;8.45;31.65;96734.16;5069192;28;20052;-79
2022/03/08 08:55:16;;;;;;;78.30;12.40;;;;;;;8.60;32.89;96723.06;5070244;28;20063;-79
2022/03/08 08:57:44;;;;;;;51.00;10.80;;;;;;;8.68;32.22;96731.66;5070832;28;20048;-79
2022/03/08 09:00:13;;;;;;;89.57;13.00;;;;;;;8.79;31.71;96728.47;5077100;28;20701;-77
2022/03/08 09:02:42;;;;;;;38.80;11.05;;;;;;;8.72;32.29;96728.06;5077866;28;20063;-77
2022/03/08 09:05:09;;;;;;;64.57;12.75;;;;;;;8.50;32.23;96727.84;5076407;28;20510;-80
2022/03/08 09:07:35;;;;;;;24.58;10.63;;;;;;;8.16;33.51;96728.06;5073560;28;20527;-78
2022/03/08 09:10:02;;;;;;;18.75;9.70;;;;;;;8.07;33.64;96727.91;5073041;28;20440;-78
2022/03/08 09:12:29;;;;;;;16.33;9.82;;;;;;;7.95;33.83;96725.63;5072731;28;20048;-79
2022/03/08 09:14:57;;;;;;;14.25;9.00;;;;;;;7.94;33.75;96731.38;5073045;28;20439;-77
2022/03/08 09:17:23;;;;;;;13.57;9.43;;;;;;;7.84;34.29;96727.69;5074612;28;20048;-78
2022/03/08 09:19:50;;;;;;;13.73;9.27;;;;;;;7.80;34.50;96726.63;5072777;28;20041;-77
2022/03/08 09:22:17;;;;;;;13.07;8.02;;;;;;;7.75;33.75;96731.31;5072378;28;20052;-78
2022/03/08 09:24:43;;;;;;;13.10;8.30;;;;;;;7.77;34.18;96737.25;5071386;28;20625;-78
2022/03/08 09:27:10;;;;;;;13.95;8.65;;;;;;;7.68;34.51;96723.56;5071089;28;20044;-78
2022/03/08 09:29:38;;;;;;;20.60;9.50;;;;;;;7.87;34.12;96725.47;5070870;28;20476;-79
2022/03/08 09:32:07;;;;;;;23.75;9.95;;;;;;;7.92;33.55;96728.94;5070316;28;20044;-80
2022/03/08 09:34:34;;;;;;;13.43;8.13;;;;;;;7.98;33.97;96721.53;5069939;28;20048;-78
2022/03/08 09:37:01;;;;;;;14.75;7.63;;;;;;;8.09;33.37;96729.25;5069240;28;20048;-78
2022/03/08 09:39:27;;;;;;;14.30;7.88;;;;;;;8.27;32.53;96726.81;5067691;28;20051;-79
2022/03/08 09:41:55;;;;;;;46.42;9.13;;;;;;;8.32;32.64;96730.25;5069973;28;20049;-78
2022/03/08 09:44:23;;;;;;;10.50;7.28;;;;;;;8.43;32.74;96728.22;5069608;28;20057;-77
2022/03/08 09:46:49;;;;;;;14.40;7.40;;;;;;;8.59;32.51;96721.47;5069392;28;20125;-77
2022/03/08 09:49:19;;;;;;;9.00;5.82;;;;;;;8.56;32.02;96727.50;5069484;28;20049;-78
2022/03/08 09:51:49;;;;;;;8.85;6.05;;;;;;;8.60;32.01;96723.06;5069454;28;20048;-78
2022/03/08 09:54:16;;;;;;;9.63;5.93;;;;;;;8.67;30.53;96728.13;5068726;28;20821;-78
2022/03/08 09:56:42;;;;;;;11.23;6.72;;;;;;;8.60;31.12;96725.78;5069735;28;20052;-77
2022/03/08 09:59:09;;;;;;;10.30;5.88;;;;;;;8.75;31.59;96713.06;5067833;28;20040;-77
2022/03/08 10:01:36;;;;;;;11.18;7.07;;;;;;;8.86;31.51;96714.50;5069836;28;20052;-78
2022/03/08 10:04:02;;;;;;;9.48;6.30;;;;;;;8.77;31.50;96710.84;5070960;28;20791;-77
2022/03/08 10:06:41;;;;;;;13.63;6.13;;;;;;;9.01;30.53;96706.09;5069525;28;20037;-75
2022/03/08 10:09:12;;;;;;;9.40;5.28;;;;;;;9.22;29.96;96716.59;5073274;28;20078;-75
2022/03/08 10:11:39;;;;;;;12.70;6.03;;;;;;;9.08;29.82;96701.09;5068066;28;20053;-75
2022/03/08 10:14:06;;;;;;;14.15;6.88;;;;;;;9.14;30.36;96702.59;5067669;28;20045;-75
2022/03/08 10:16:42;;;;;;;9.95;5.30;;;;;;;9.08;29.34;96703.81;5069332;28;20072;-75
2022/03/08 10:19:09;;;;;;;19.50;7.15;;;;;;;9.13;29.32;96714.59;5069628;28;20144;-75
2022/03/08 10:21:37;;;;;;;9.13;5.88;;;;;;;9.06;29.58;96713.34;5069987;28;20063;-75
2022/03/08 10:24:13;;;;;;;13.93;6.40;;;;;;;9.04;28.73;96716.38;5070085;28;20571;-76
2022/03/08 10:26:45;;;;;;;8.60;5.20;;;;;;;8.97;29.01;96710.50;5070075;28;20044;-76
2022/03/08 10:29:12;;;;;;;23.23;7.15;;;;;;;8.98;29.08;96716.75;5068554;28;20056;-76
2022/03/08 10:31:38;;;;;;;10.55;5.32;;;;;;;8.99;29.07;96713.75;5075402;28;20051;-75
2022/03/08 10:34:08;;;;;;;20.00;7.70;;;;;;;8.96;28.71;96719.75;5068909;28;20046;-75
2022/03/08 10:36:37;;;;;;;10.73;5.63;;;;;;;8.74;28.84;96714.19;5069329;28;20451;-75
2022/03/08 10:39:16;;;;;;;11.07;5.93;;;;;;;8.63;29.90;96711.63;5067783;28;20054;-75
2022/03/08 10:41:51;;;;;;;10.90;5.38;;;;;;;8.65;30.19;96713.25;5070097;28;20143;-75
2022/03/08 10:44:30;;;;;;;10.35;4.88;;;;;;;8.46;29.40;96716.00;5070326;28;20045;-75
2022/03/08 10:47:05;;;;;;;10.60;5.30;;;;;;;8.33;28.53;96720.22;5071739;28;20048;-75
2022/03/08 10:49:32;;;;;;;10.95;5.10;;;;;;;8.25;28.83;96715.47;5071758;28;20037;-77
2022/03/08 10:52:06;;;;;;;9.43;4.53;;;;;;;8.19;27.98;96716.63;5071186;28;20048;-76
2022/03/08 10:54:34;;;;;;;20.75;6.18;;;;;;;8.10;28.27;96720.00;5069236;28;20041;-76
2022/03/08 10:57:02;;;;;;;12.68;5.50;;;;;;;7.96;28.50;96708.25;5073439;28;20591;-75
2022/03/08 10:59:29;;;;;;;10.98;4.75;;;;;;;7.75;28.58;96706.94;5068582;28;20136;-76
2022/03/08 11:01:56;;;;;;;22.65;5.45;;;;;;;7.77;30.38;96704.72;5069849;28;20049;-75
2022/03/08 11:04:24;;;;;;;9.38;5.40;;;;;;;7.66;29.69;96703.25;5072146;28;20048;-76
2022/03/08 11:06:52;;;;;;;12.02;5.35;;;;;;;7.74;29.65;96691.75;5073466;28;20052;-76
2022/03/08 11:09:20;;;;;;;28.50;7.07;;;;;;;7.90;29.23;96703.22;5073535;28;20075;-77
2022/03/08 11:11:48;;;;;;;24.42;5.72;;;;;;;7.90;29.77;96687.75;5073864;28;20497;-78
2022/03/08 11:14:15;;;;;;;9.75;5.00;;;;;;;7.98;30.26;96695.22;5073661;28;20413;-76
2022/03/08 11:16:43;;;;;;;60.30;6.65;;;;;;;8.00;29.43;96703.88;5073805;28;20041;-78
2022/03/08 11:19:11;;;;;;;49.72;7.03;;;;;;;7.92;29.51;96695.59;5075850;28;20048;-77
2022/03/08 11:21:39;;;;;;;32.63;6.07;;;;;;;7.94;30.59;96693.41;5074089;28;20527;-76